Time;durP1;ratioP1;P1;durP2;ratioP2;P2;SDS_P1;SDS_P2;PMS_P1;PMS_P2;Temp;Humidity;BMP_temperature;BMP_pressure;BME280_temperature;BME280_humidity;BME280_pressure;Samples;Min_cycle;Max_cycle;Signal;HPM_P1;HPM_P2
2021/01/28 00:00:25;;;;;;;28.33;13.82;;;-0.40;99.90;;;;;;5006697;28;20419;-58
2021/01/28 00:02:51;;;;;;;27.92;14.32;;;-0.40;99.90;;;;;;5006638;28;20366;-58
2021/01/28 00:05:18;;;;;;;23.25;12.88;;;-0.40;99.90;;;;;;5005614;28;20055;-58
2021/01/28 00:07:45;;;;;;;22.67;13.27;;;-0.40;99.90;;;;;;5006534;28;20076;-58
2021/01/28 00:10:12;;;;;;;25.05;13.35;;;-0.40;99.90;;;;;;5005524;28;20034;-58
2021/01/28 00:12:37;;;;;;;27.75;13.27;;;-0.40;99.90;;;;;;5006699;28;20042;-58
2021/01/28 00:15:05;;;;;;;22.58;12.32;;;-0.40;99.90;;;;;;5006784;28;20478;-58
2021/01/28 00:17:31;;;;;;;23.40;12.88;;;-0.40;99.90;;;;;;5006775;28;20121;-58
2021/01/28 00:19:57;;;;;;;27.92;13.65;;;-0.40;99.90;;;;;;5006815;28;20112;-58
2021/01/28 00:22:23;;;;;;;25.00;12.85;;;-0.40;99.90;;;;;;5006459;28;20133;-57
2021/01/28 00:24:49;;;;;;;24.30;13.10;;;-0.40;99.90;;;;;;5006713;28;20026;-58
2021/01/28 00:27:14;;;;;;;26.60;13.98;;;-0.40;99.90;;;;;;5006472;28;20440;-58
2021/01/28 00:29:40;;;;;;;24.77;13.27;;;-0.40;99.90;;;;;;5006399;28;20030;-58
2021/01/28 00:32:06;;;;;;;21.80;12.00;;;-0.40;99.90;;;;;;5010144;28;20892;-57
2021/01/28 00:34:32;;;;;;;23.52;12.63;;;-0.40;99.90;;;;;;5010087;28;20117;-58
2021/01/28 00:36:59;;;;;;;22.10;11.82;;;-0.50;99.90;;;;;;5010042;28;20034;-58
2021/01/28 00:39:24;;;;;;;25.02;12.13;;;-0.40;99.90;;;;;;5009710;28;20037;-57
2021/01/28 00:41:50;;;;;;;24.35;12.27;;;-0.40;99.90;;;;;;5009665;28;20061;-57
2021/01/28 00:44:16;;;;;;;22.25;12.05;;;-0.50;99.90;;;;;;5009606;28;20037;-57
2021/01/28 00:46:42;;;;;;;21.58;11.48;;;-0.40;99.90;;;;;;5009687;28;20091;-58
2021/01/28 00:49:09;;;;;;;22.25;12.02;;;-0.40;99.90;;;;;;5009789;28;20506;-58
2021/01/28 00:51:34;;;;;;;20.00;11.10;;;-0.50;99.90;;;;;;5009451;28;20068;-58
2021/01/28 00:54:00;;;;;;;22.67;12.63;;;-0.50;99.90;;;;;;5009603;28;20042;-58
2021/01/28 00:56:26;;;;;;;19.08;11.43;;;-0.50;99.90;;;;;;5009532;28;20034;-58
2021/01/28 00:58:52;;;;;;;24.58;11.23;;;-0.50;99.90;;;;;;5008085;28;20125;-58
2021/01/28 01:01:23;;;;;;;18.33;10.25;;;-0.60;99.90;;;;;;5008152;28;20065;-58
2021/01/28 01:03:48;;;;;;;19.73;11.25;;;-0.60;99.90;;;;;;5008125;28;20552;-58
2021/01/28 01:06:14;;;;;;;23.13;11.07;;;-0.60;99.90;;;;;;5008105;28;20411;-58
2021/01/28 01:08:40;;;;;;;21.38;11.52;;;-0.60;99.90;;;;;;5009110;28;20211;-58
2021/01/28 01:11:13;;;;;;;21.63;11.10;;;-0.60;99.90;;;;;;5009400;28;20145;-58
2021/01/28 01:13:41;;;;;;;20.23;10.68;;;-0.60;99.90;;;;;;5007967;28;20046;-58
2021/01/28 01:16:19;;;;;;;18.65;10.38;;;-0.70;99.90;;;;;;5009516;28;20033;-58
2021/01/28 01:18:51;;;;;;;;;;;-0.70;99.90;;;;;;5008424;28;20068;-58
2021/01/28 01:21:17;;;;;;;18.92;10.25;;;-0.70;99.90;;;;;;5007845;28;19913;-58
2021/01/28 01:23:49;;;;;;;20.08;10.27;;;-0.70;99.90;;;;;;5007620;28;20049;-58
2021/01/28 01:26:18;;;;;;;17.42;9.90;;;-0.70;99.90;;;;;;5009193;28;20030;-58
2021/01/28 01:28:47;;;;;;;18.42;9.48;;;-0.70;99.90;;;;;;5007662;28;20033;-58
2021/01/28 01:31:23;;;;;;;18.45;10.88;;;-0.70;99.90;;;;;;5007544;28;20034;-58
2021/01/28 01:33:49;;;;;;;20.48;11.00;;;-0.70;99.90;;;;;;5008805;28;20041;-58
2021/01/28 01:36:15;;;;;;;17.88;10.27;;;-0.70;99.90;;;;;;5007677;28;20033;-58
2021/01/28 01:38:52;;;;;;;18.25;8.93;;;-0.70;99.90;;;;;;5007700;28;20510;-58
2021/01/28 01:41:29;;;;;;;22.75;11.20;;;-0.70;99.90;;;;;;5006775;28;20234;-58
2021/01/28 01:44:03;;;;;;;16.87;9.83;;;-0.70;99.90;;;;;;5007262;28;20053;-58
2021/01/28 01:46:36;;;;;;;21.67;9.77;;;-0.70;99.90;;;;;;5007359;28;20044;-58
2021/01/28 01:49:08;;;;;;;15.65;9.40;;;-0.70;99.90;;;;;;5093676;28;20059;-58
2021/01/28 01:51:36;;;;;;;13.88;8.95;;;-0.70;99.90;;;;;;5007378;28;20052;-58
2021/01/28 01:54:33;;;;;;;15.20;8.50;;;-0.80;99.90;;;;;;5007364;28;20445;-58
2021/01/28 01:57:04;;;;;;;18.10;8.75;;;-0.80;99.90;;;;;;5007375;28;20046;-58
2021/01/28 01:59:43;;;;;;;16.27;7.55;;;-0.80;99.90;;;;;;5007154;28;20510;-58
2021/01/28 02:02:38;;;;;;;17.48;8.50;;;-0.80;99.90;;;;;;5008327;28;20046;-58
2021/01/28 02:05:27;;;;;;;15.18;8.93;;;-0.80;99.90;;;;;;5008839;28;20468;-58
2021/01/28 02:08:11;;;;;;;14.70;7.82;;;-0.80;99.90;;;;;;5008701;28;20119;-58
2021/01/28 02:11:10;;;;;;;11.63;8.02;;;-0.80;99.90;;;;;;5008224;28;20038;-58
2021/01/28 02:13:47;;;;;;;13.27;8.40;;;-0.80;99.90;;;;;;5008336;28;20095;-58
2021/01/28 02:16:56;;;;;;;13.57;8.50;;;-0.80;99.90;;;;;;4985818;28;20411;-57
2021/01/28 02:19:53;;;;;;;12.43;8.57;;;-0.80;99.90;;;;;;5008419;28;20060;-58
2021/01/28 02:22:28;;;;;;;11.23;7.38;;;-0.80;99.90;;;;;;5006879;28;20465;-58
2021/01/28 02:25:10;;;;;;;11.90;8.15;;;-0.80;99.90;;;;;;5006953;28;20095;-58
2021/01/28 02:27:41;;;;;;;12.73;8.75;;;-0.80;99.90;;;;;;5008014;28;20045;-58
2021/01/28 02:30:34;;;;;;;18.33;8.95;;;-0.80;99.90;;;;;;5006013;28;20050;-58
2021/01/28 02:33:01;;;;;;;13.75;8.38;;;-0.80;99.90;;;;;;5006853;28;20051;-58
2021/01/28 02:35:58;;;;;;;16.73;9.23;;;-0.80;99.90;;;;;;4985353;28;20034;-58
2021/01/28 02:38:26;;;;;;;19.92;9.23;;;-0.80;99.90;;;;;;5006839;28;20041;-58
2021/01/28 02:41:03;;;;;;;14.48;8.20;;;-0.80;99.90;;;;;;5006752;28;20441;-58
2021/01/28 02:43:47;;;;;;;15.45;8.02;;;-0.80;99.90;;;;;;5008018;28;20068;-58
2021/01/28 02:46:32;;;;;;;12.10;8.48;;;-0.80;99.90;;;;;;5008052;28;20091;-58
2021/01/28 02:49:05;;;;;;;16.80;8.80;;;-0.80;99.90;;;;;;5005240;28;20048;-58
2021/01/28 02:51:38;;;;;;;14.48;8.48;;;-0.80;99.90;;;;;;5007956;28;20059;-58
2021/01/28 02:54:08;;;;;;;12.18;8.10;;;-0.80;99.90;;;;;;5006348;28;20057;-58
2021/01/28 02:56:37;;;;;;;11.63;6.85;;;-0.80;99.90;;;;;;5006492;28;20042;-58
2021/01/28 02:59:08;;;;;;;13.48;7.35;;;-0.80;99.90;;;;;;5007712;28;20056;-58
2021/01/28 03:01:38;;;;;;;;;;;-0.80;99.90;;;;;;5006746;28;20185;-58
2021/01/28 03:04:07;;;;;;;15.73;7.47;;;-0.80;99.90;;;;;;5006345;28;19917;-58
2021/01/28 03:06:35;;;;;;;7.85;6.78;;;-0.70;99.90;;;;;;5006239;28;20046;-58
2021/01/28 03:09:01;;;;;;;12.10;7.60;;;-0.70;99.90;;;;;;5006296;28;20042;-58
2021/01/28 03:11:51;;;;;;;12.98;7.22;;;-0.70;99.90;;;;;;5007450;28;20045;-58
2021/01/28 03:14:29;;;;;;;10.38;7.55;;;-0.70;99.90;;;;;;5006210;28;20091;-58
2021/01/28 03:17:04;;;;;;;10.60;7.45;;;-0.80;99.90;;;;;;5007460;28;20088;-58
2021/01/28 03:19:37;;;;;;;13.55;7.65;;;-0.70;99.90;;;;;;5006077;28;20065;-58
2021/01/28 03:22:15;;;;;;;13.20;7.05;;;-0.70;99.90;;;;;;5091630;28;20407;-58
2021/01/28 03:24:49;;;;;;;8.40;6.78;;;-0.70;99.90;;;;;;5005873;28;20037;-58
2021/01/28 03:27:20;;;;;;;14.32;8.23;;;-0.70;99.90;;;;;;5007297;28;20038;-58
2021/01/28 03:29:51;;;;;;;15.30;9.38;;;-0.70;99.90;;;;;;5006571;28;20045;-58
2021/01/28 03:32:17;;;;;;;17.02;9.02;;;-0.70;99.90;;;;;;5007123;28;20042;-58
2021/01/28 03:34:44;;;;;;;18.20;9.35;;;-0.70;99.90;;;;;;5005987;28;20053;-58
2021/01/28 03:37:10;;;;;;;11.60;8.00;;;-0.70;99.90;;;;;;5005973;28;20038;-58
2021/01/28 03:39:50;;;;;;;9.77;7.53;;;-0.80;99.90;;;;;;4991439;28;20029;-59
2021/01/28 03:42:16;;;;;;;9.48;7.07;;;-0.80;99.90;;;;;;5006830;28;20049;-58
2021/01/28 03:44:42;;;;;;;10.88;6.60;;;-0.80;99.90;;;;;;5005702;28;20041;-58
2021/01/28 03:47:10;;;;;;;10.57;6.50;;;-0.80;99.90;;;;;;5005633;28;20503;-58
2021/01/28 03:49:48;;;;;;;13.52;7.65;;;-0.80;99.90;;;;;;5005493;28;20532;-58
2021/01/28 03:52:20;;;;;;;11.82;7.43;;;-0.80;99.90;;;;;;5006914;28;20049;-58
2021/01/28 03:55:15;;;;;;;11.68;6.57;;;-0.80;99.90;;;;;;4993625;28;20042;-58
2021/01/28 03:57:46;;;;;;;10.48;6.30;;;-0.80;99.90;;;;;;5006871;28;20041;-59
2021/01/28 04:00:17;;;;;;;11.95;7.07;;;-0.80;99.90;;;;;;5005492;28;20073;-58
2021/01/28 04:02:57;;;;;;;10.30;7.63;;;-0.80;99.90;;;;;;5006565;28;20531;-58
2021/01/28 04:05:41;;;;;;;12.90;7.68;;;-0.80;99.90;;;;;;5006302;28;20533;-58
2021/01/28 04:08:30;;;;;;;14.25;7.68;;;-0.80;99.90;;;;;;5006588;28;20042;-58
2021/01/28 04:11:15;;;;;;;9.10;7.13;;;-0.80;99.90;;;;;;5006559;28;20042;-58
2021/01/28 04:13:42;;;;;;;11.05;7.82;;;-0.90;99.90;;;;;;5005337;28;20067;-58
2021/01/28 04:16:13;;;;;;;7.80;6.32;;;-0.90;99.90;;;;;;5005096;28;20503;-58
2021/01/28 04:18:39;;;;;;;9.70;6.50;;;-0.90;99.90;;;;;;5005431;28;20134;-58
2021/01/28 04:21:25;;;;;;;11.88;7.28;;;-0.90;99.90;;;;;;5006341;28;20411;-58
2021/01/28 04:23:57;;;;;;;7.72;6.20;;;-0.90;99.90;;;;;;5005124;28;20533;-58
2021/01/28 04:26:58;;;;;;;10.80;6.53;;;-0.90;99.90;;;;;;4996643;28;20139;-59
2021/01/28 04:29:53;;;;;;;10.70;6.35;;;-0.90;99.90;;;;;;4997162;28;20054;-60
2021/01/28 04:32:34;;;;;;;10.60;7.53;;;-0.80;99.90;;;;;;5005156;28;21182;-60
2021/01/28 04:35:18;;;;;;;10.57;7.93;;;-0.90;99.90;;;;;;5012739;28;20045;-60
2021/01/28 04:37:46;;;;;;;10.02;7.30;;;-0.90;99.90;;;;;;5005080;28;20092;-60
2021/01/28 04:40:35;;;;;;;12.95;7.38;;;-0.90;99.90;;;;;;5005006;28;20126;-60
2021/01/28 04:43:25;;;;;;;10.40;7.53;;;-0.90;99.90;;;;;;5004841;28;20050;-61
2021/01/28 04:46:16;;;;;;;9.77;7.63;;;-1.00;99.90;;;;;;5004918;28;20492;-61
2021/01/28 04:48:49;;;;;;;10.43;7.22;;;-1.00;99.90;;;;;;5004908;28;20487;-60
2021/01/28 04:51:35;;;;;;;12.40;7.57;;;-1.00;99.90;;;;;;5006186;28;20046;-60
2021/01/28 04:54:25;;;;;;;9.30;6.63;;;-1.00;99.90;;;;;;5004770;28;20050;-60
2021/01/28 04:56:55;;;;;;;14.88;8.50;;;-1.10;99.90;;;;;;4988714;28;20041;-60
2021/01/28 04:59:42;;;;;;;14.20;8.63;;;-1.10;99.90;;;;;;5005132;28;20046;-60
2021/01/28 05:02:17;;;;;;;15.82;8.80;;;-1.10;99.90;;;;;;5006033;28;20068;-60
2021/01/28 05:05:05;;;;;;;17.30;9.23;;;-1.10;99.90;;;;;;5004714;28;20061;-60
2021/01/28 05:07:49;;;;;;;18.52;10.43;;;-1.20;99.90;;;;;;5005974;28;20061;-60
2021/01/28 05:10:45;;;;;;;19.88;9.85;;;-1.20;99.90;;;;;;5036592;28;20116;-60
2021/01/28 05:13:37;;;;;;;21.70;10.82;;;-1.10;99.90;;;;;;5006278;28;20030;-60
2021/01/28 05:16:51;;;;;;;25.65;11.60;;;-1.10;99.90;;;;;;5006095;28;20091;-61
2021/01/28 05:19:48;;;;;;;24.30;12.75;;;-1.20;99.90;;;;;;5009436;28;20065;-60
2021/01/28 05:22:26;;;;;;;27.30;13.68;;;-1.20;99.90;;;;;;5009079;28;20134;-60
2021/01/28 05:25:11;;;;;;;22.13;13.25;;;-1.20;99.90;;;;;;5007809;28;20076;-60
2021/01/28 05:27:42;;;;;;;30.10;14.50;;;-1.30;99.90;;;;;;5007791;28;20042;-60
2021/01/28 05:30:36;;;;;;;27.80;14.32;;;-1.20;99.90;;;;;;5007589;28;20046;-62
2021/01/28 05:33:03;;;;;;;38.20;14.82;;;-1.30;99.90;;;;;;5009023;28;20041;-58
2021/01/28 05:36:23;;;;;;;32.42;16.35;;;-1.30;99.90;;;;;;5007916;28;20056;-60
2021/01/28 05:39:26;;;;;;;35.60;15.63;;;-1.30;99.90;;;;;;5008738;28;20050;-60
2021/01/28 05:42:03;;;;;;;31.63;15.65;;;-1.30;99.90;;;;;;5008669;28;20045;-60
2021/01/28 05:44:31;;;;;;;30.55;17.02;;;-1.30;99.90;;;;;;5008992;28;20087;-60
2021/01/28 05:47:20;;;;;;;35.30;17.35;;;-1.30;99.90;;;;;;5007598;28;20041;-60
2021/01/28 05:50:25;;;;;;;35.72;16.35;;;-1.30;99.90;;;;;;5001467;28;20855;-60
2021/01/28 05:52:51;;;;;;;39.70;17.42;;;-1.30;99.90;;;;;;4998638;28;20047;-60
2021/01/28 05:55:33;;;;;;;;;;;-1.30;99.90;;;;;;5006369;28;20040;-60
2021/01/28 05:58:29;;;;;;;31.83;17.73;;;-1.30;99.90;;;;;;5005846;28;20385;-60
2021/01/28 06:01:08;;;;;;;36.75;16.35;;;-1.30;99.90;;;;;;5005858;28;20030;-60
2021/01/28 06:04:22;;;;;;;37.88;17.00;;;-1.30;99.90;;;;;;5005761;28;20049;-60
2021/01/28 06:07:40;;;;;;;31.08;16.60;;;-1.20;99.90;;;;;;5000198;28;20053;-61
2021/01/28 06:10:44;;;;;;;36.28;18.65;;;-1.20;99.90;;;;;;4986192;28;20054;-61
2021/01/28 06:14:01;;;;;;;34.47;16.88;;;-1.20;99.90;;;;;;4988090;28;20054;-61
2021/01/28 06:17:20;;;;;;;31.63;16.70;;;-1.20;99.90;;;;;;4973777;28;20585;-59
2021/01/28 06:20:36;;;;;;;36.38;18.63;;;-1.10;99.90;;;;;;4957639;28;20080;-61
2021/01/28 06:23:19;;;;;;;36.70;18.55;;;-1.10;99.90;;;;;;4981086;28;20055;-58
2021/01/28 06:26:04;;;;;;;37.78;20.08;;;-1.10;99.90;;;;;;5000758;28;20424;-59
2021/01/28 06:29:10;;;;;;;42.35;21.42;;;-1.00;99.90;;;;;;4984197;28;20038;-59
2021/01/28 06:32:00;;;;;;;42.80;20.48;;;-1.00;99.90;;;;;;4985067;28;20042;-59
2021/01/28 06:35:18;;;;;;;46.10;20.83;;;-0.90;99.90;;;;;;4987459;28;20057;-59
2021/01/28 06:38:25;;;;;;;45.75;20.30;;;-0.90;99.90;;;;;;4987031;28;20054;-58
2021/01/28 06:41:14;;;;;;;41.55;19.20;;;-0.90;99.90;;;;;;4995714;28;20049;-59
2021/01/28 06:44:16;;;;;;;41.53;20.27;;;-0.90;99.90;;;;;;5006001;28;20368;-59
2021/01/28 06:47:20;;;;;;;45.83;21.38;;;-0.80;99.90;;;;;;5006877;28;20049;-58
2021/01/28 06:50:16;;;;;;;45.03;21.80;;;-0.80;99.90;;;;;;5005345;28;20087;-59
2021/01/28 06:53:18;;;;;;;48.92;21.50;;;-0.80;99.90;;;;;;5005069;28;20037;-58
2021/01/28 06:56:14;;;;;;;40.88;21.85;;;-0.70;99.90;;;;;;5006739;28;20464;-59
2021/01/28 06:59:31;;;;;;;45.15;20.35;;;-0.70;99.90;;;;;;5013961;28;20574;-59
2021/01/28 07:02:41;;;;;;;49.05;23.25;;;-0.70;99.90;;;;;;5004966;28;20050;-58
2021/01/28 07:05:41;;;;;;;47.20;23.35;;;-0.70;99.90;;;;;;5006370;28;20517;-58
2021/01/28 07:08:27;;;;;;;54.60;22.38;;;-0.70;99.90;;;;;;5006119;28;20815;-58
2021/01/28 07:11:42;;;;;;;49.67;24.27;;;-0.70;99.90;;;;;;5004589;28;20045;-58
2021/01/28 07:14:26;;;;;;;50.40;23.45;;;-0.60;99.90;;;;;;5001333;28;20544;-59
2021/01/28 07:17:10;;;;;;;48.78;22.77;;;-0.60;99.90;;;;;;5005982;28;20041;-59
2021/01/28 07:19:40;;;;;;;55.40;24.20;;;-0.50;99.90;;;;;;5005906;28;20178;-58
2021/01/28 07:22:39;;;;;;;45.35;22.73;;;-0.50;99.90;;;;;;5004822;28;20052;-58
2021/01/28 07:25:34;;;;;;;42.85;21.85;;;-0.40;99.90;;;;;;4950350;28;20034;-58
2021/01/28 07:28:23;;;;;;;49.15;22.13;;;-0.30;99.90;;;;;;5006212;28;20038;-58
2021/01/28 07:30:53;;;;;;;46.65;22.75;;;-0.30;99.90;;;;;;5006030;28;20046;-58
2021/01/28 07:33:25;;;;;;;45.83;21.85;;;-0.20;99.90;;;;;;5005825;28;20127;-58
2021/01/28 07:36:23;;;;;;;50.40;23.58;;;-0.10;99.90;;;;;;5005662;28;20057;-59
2021/01/28 07:39:30;;;;;;;49.90;24.48;;;-0.10;99.90;;;;;;5005078;28;20128;-58
2021/01/28 07:42:30;;;;;;;50.00;23.92;;;0.00;99.90;;;;;;5005709;28;20110;-58
2021/01/28 07:45:29;;;;;;;42.35;22.10;;;0.00;99.90;;;;;;4994599;28;20501;-58
2021/01/28 07:48:32;;;;;;;57.40;25.23;;;0.10;99.90;;;;;;5005925;28;20053;-66
2021/01/28 07:51:32;;;;;;;55.88;26.58;;;0.20;99.90;;;;;;5006098;28;20408;-64
2021/01/28 07:53:59;;;;;;;60.92;27.83;;;0.20;99.90;;;;;;5005858;28;20167;-65
2021/01/28 07:56:39;;;;;;;57.42;27.67;;;0.20;99.90;;;;;;5005659;28;20134;-62
2021/01/28 07:59:46;;;;;;;59.58;27.08;;;0.20;99.90;;;;;;4992609;28;20046;-61
2021/01/28 08:02:23;;;;;;;53.08;25.27;;;0.20;99.90;;;;;;4985670;28;20594;-61
2021/01/28 08:05:01;;;;;;;59.65;27.38;;;0.30;99.90;;;;;;4986220;28;20062;-62
2021/01/28 08:07:30;;;;;;;53.60;23.77;;;0.30;99.90;;;;;;4986213;28;20045;-61
2021/01/28 08:09:59;;;;;;;56.80;26.08;;;0.40;99.90;;;;;;4985765;28;20027;-62
2021/01/28 08:12:53;;;;;;;52.25;24.38;;;0.40;99.90;;;;;;4985645;28;20042;-59
2021/01/28 08:15:40;;;;;;;53.50;26.13;;;0.50;99.90;;;;;;4976569;28;20085;-60
2021/01/28 08:18:29;;;;;;;58.13;26.77;;;0.50;99.90;;;;;;5001818;28;20572;-59
2021/01/28 08:21:28;;;;;;;49.67;25.27;;;0.70;99.90;;;;;;5005713;28;20042;-60
2021/01/28 08:23:54;;;;;;;50.25;25.42;;;0.70;99.90;;;;;;5005239;28;20380;-59
2021/01/28 08:26:23;;;;;;;53.58;26.30;;;0.80;99.90;;;;;;5005042;28;20417;-60
2021/01/28 08:28:48;;;;;;;58.70;28.85;;;0.80;99.90;;;;;;5005072;28;20125;-60
2021/01/28 08:31:24;;;;;;;59.67;27.45;;;0.90;99.90;;;;;;5004230;28;20121;-59
2021/01/28 08:33:59;;;;;;;53.80;25.27;;;1.00;99.90;;;;;;5005119;28;20042;-59
2021/01/28 08:36:51;;;;;;;54.15;24.98;;;0.90;99.90;;;;;;5004780;28;20065;-57
2021/01/28 08:39:17;;;;;;;52.15;25.55;;;1.00;99.90;;;;;;5006937;28;20095;-58
2021/01/28 08:41:45;;;;;;;63.65;26.65;;;0.90;99.90;;;;;;5004986;28;20464;-57
2021/01/28 08:44:14;;;;;;;51.90;25.20;;;0.90;99.90;;;;;;5004908;28;20597;-57
2021/01/28 08:46:43;;;;;;;54.85;24.45;;;0.90;99.90;;;;;;5004972;28;20057;-59
2021/01/28 08:49:17;;;;;;;54.47;26.02;;;0.90;99.90;;;;;;5002389;28;20120;-58
2021/01/28 08:51:48;;;;;;;59.05;25.13;;;1.00;99.90;;;;;;4986960;28;20034;-57
2021/01/28 08:54:18;;;;;;;56.42;26.42;;;1.00;99.90;;;;;;4994960;28;20455;-57
2021/01/28 08:56:45;;;;;;;53.85;26.05;;;1.10;99.90;;;;;;5008203;28;20044;-60
2021/01/28 08:59:14;;;;;;;60.88;27.55;;;1.10;99.90;;;;;;5008133;28;20126;-58
2021/01/28 09:01:43;;;;;;;57.83;25.58;;;1.20;99.90;;;;;;5007977;28;20049;-58
2021/01/28 09:04:22;;;;;;;62.80;26.83;;;1.30;99.90;;;;;;5008008;28;20037;-58
2021/01/28 09:06:49;;;;;;;61.92;28.70;;;1.30;99.90;;;;;;5008320;28;20049;-58
2021/01/28 09:09:18;;;;;;;62.20;27.23;;;1.40;99.90;;;;;;5006950;28;20044;-57
2021/01/28 09:11:44;;;;;;;63.85;29.48;;;1.50;99.90;;;;;;5008358;28;20042;-58
2021/01/28 09:14:15;;;;;;;51.60;24.35;;;1.60;99.90;;;;;;5007804;28;20485;-58
2021/01/28 09:16:57;;;;;;;54.83;25.45;;;1.80;99.90;;;;;;5007757;28;20053;-59
2021/01/28 09:19:24;;;;;;;44.13;20.00;;;2.00;99.90;;;;;;5007741;28;20045;-59
2021/01/28 09:22:06;;;;;;;46.53;21.42;;;2.20;99.90;;;;;;5007703;28;20034;-58
2021/01/28 09:24:47;;;;;;;34.00;17.47;;;2.60;99.90;;;;;;5007914;28;20081;-59
2021/01/28 09:27:22;;;;;;;33.75;17.55;;;3.10;99.90;;;;;;5007687;28;20339;-59
2021/01/28 09:29:51;;;;;;;33.05;15.43;;;3.60;99.90;;;;;;5007757;28;20050;-60
2021/01/28 09:32:22;;;;;;;25.05;12.85;;;4.10;99.90;;;;;;5007644;28;20090;-60
2021/01/28 09:35:08;;;;;;;26.05;13.00;;;4.50;99.90;;;;;;5007611;28;20066;-61
2021/01/28 09:37:37;;;;;;;25.85;14.45;;;4.90;99.90;;;;;;5007658;28;20545;-60
2021/01/28 09:40:19;;;;;;;22.83;13.10;;;5.50;99.50;;;;;;5007572;28;20083;-61
2021/01/28 09:42:46;;;;;;;26.20;14.77;;;6.10;96.70;;;;;;5007323;28;20128;-61
2021/01/28 09:45:21;;;;;;;20.10;12.10;;;6.40;91.40;;;;;;5007739;28;20048;-60
2021/01/28 09:47:55;;;;;;;22.27;12.15;;;6.50;90.50;;;;;;5007516;28;20034;-60
2021/01/28 09:50:23;;;;;;;22.13;11.32;;;6.80;89.10;;;;;;5007563;28;20099;-59
2021/01/28 09:52:50;;;;;;;20.33;11.77;;;7.60;83.00;;;;;;5007535;28;20107;-59
2021/01/28 09:55:20;;;;;;;23.65;12.68;;;9.00;77.70;;;;;;5007339;28;20029;-63
2021/01/28 09:57:46;;;;;;;27.15;11.80;;;10.40;70.30;;;;;;5007020;28;20050;-63
2021/01/28 10:00:16;;;;;;;19.73;10.63;;;11.50;65.10;;;;;;5006200;28;20042;-64
2021/01/28 10:02:59;;;;;;;14.63;8.50;;;12.30;63.40;;;;;;5006164;28;20069;-64
2021/01/28 10:05:27;;;;;;;14.30;7.80;;;13.00;59.40;;;;;;5006973;28;20093;-65
2021/01/28 10:07:53;;;;;;;11.85;8.13;;;13.10;57.10;;;;;;5006773;28;20041;-64
2021/01/28 10:10:22;;;;;;;10.52;6.90;;;13.20;57.10;;;;;;5006086;28;20284;-66
2021/01/28 10:12:49;;;;;;;11.38;6.93;;;13.20;55.50;;;;;;5005141;28;20034;-66
2021/01/28 10:15:15;;;;;;;12.32;7.68;;;13.30;54.70;;;;;;5006757;28;20038;-67
2021/01/28 10:17:42;;;;;;;9.57;6.75;;;13.50;53.80;;;;;;5006638;28;20037;-64
2021/01/28 10:20:08;;;;;;;12.07;7.25;;;13.60;52.20;;;;;;5006548;28;20522;-64
2021/01/28 10:22:36;;;;;;;11.88;6.20;;;14.00;51.60;;;;;;5006401;28;20049;-65
2021/01/28 10:25:04;;;;;;;13.63;6.35;;;14.30;49.60;;;;;;5006703;28;20041;-66
2021/01/28 10:27:30;;;;;;;12.20;6.85;;;14.30;48.30;;;;;;4995170;28;20050;-65
2021/01/28 10:29:55;;;;;;;10.82;7.30;;;14.30;45.70;;;;;;4986817;28;20030;-65
2021/01/28 10:32:21;;;;;;;14.32;6.70;;;14.50;48.10;;;;;;4986421;28;20410;-64
2021/01/28 10:34:47;;;;;;;16.83;6.47;;;14.60;47.80;;;;;;5003394;28;20034;-67
2021/01/28 10:37:13;;;;;;;10.63;4.85;;;14.90;48.20;;;;;;5006309;28;20494;-63
2021/01/28 10:39:39;;;;;;;12.07;5.13;;;14.70;47.60;;;;;;5006361;28;20091;-63
2021/01/28 10:42:05;;;;;;;8.32;4.65;;;14.50;47.10;;;;;;5006023;28;20061;-63
2021/01/28 10:44:31;;;;;;;9.45;5.40;;;14.20;48.00;;;;;;4992338;28;20038;-64
2021/01/28 10:46:57;;;;;;;6.70;4.45;;;13.90;47.40;;;;;;4995501;28;20385;-65
2021/01/28 10:49:23;;;;;;;6.90;3.47;;;13.70;47.00;;;;;;4994894;28;20046;-64
2021/01/28 10:51:49;;;;;;;4.80;3.13;;;13.60;47.90;;;;;;4993527;28;20037;-64
2021/01/28 10:54:16;;;;;;;6.32;3.08;;;13.40;46.40;;;;;;4996995;28;20061;-62
2021/01/28 10:56:42;;;;;;;8.02;4.20;;;13.20;47.80;;;;;;4986589;28;20041;-63
2021/01/28 10:59:08;;;;;;;9.65;4.40;;;13.30;48.00;;;;;;4999990;28;20207;-63
2021/01/28 11:01:34;;;;;;;8.73;4.70;;;13.40;48.00;;;;;;5006096;28;20575;-62
2021/01/28 11:04:00;;;;;;;7.40;4.85;;;13.10;46.80;;;;;;5006305;28;20042;-62
2021/01/28 11:06:26;;;;;;;8.45;4.95;;;13.10;47.30;;;;;;5006000;28;20453;-63
2021/01/28 11:08:51;;;;;;;6.57;4.82;;;13.00;46.50;;;;;;5006108;28;20517;-63
2021/01/28 11:11:18;;;;;;;8.70;4.88;;;12.90;47.10;;;;;;4997717;28;20037;-62
2021/01/28 11:13:46;;;;;;;10.40;5.38;;;12.20;46.80;;;;;;4985684;28;20048;-63
2021/01/28 11:16:12;;;;;;;9.63;4.78;;;12.00;47.80;;;;;;4986298;28;20026;-63
2021/01/28 11:18:39;;;;;;;8.30;4.65;;;11.30;47.50;;;;;;4986290;28;20069;-62
2021/01/28 11:21:05;;;;;;;6.22;4.40;;;11.20;47.90;;;;;;4986146;28;20107;-59
2021/01/28 11:23:31;;;;;;;9.18;4.78;;;10.60;47.80;;;;;;4986271;28;20053;-61
2021/01/28 11:25:56;;;;;;;12.38;4.93;;;10.30;49.40;;;;;;4986319;28;20038;-61
2021/01/28 11:28:24;;;;;;;9.77;4.70;;;10.10;49.10;;;;;;4985998;28;20137;-62
2021/01/28 11:30:50;;;;;;;13.20;5.35;;;10.40;50.60;;;;;;4986019;28;20062;-61
2021/01/28 11:33:15;;;;;;;7.15;4.38;;;10.60;49.50;;;;;;4986152;28;20103;-61
2021/01/28 11:35:41;;;;;;;7.32;4.53;;;10.60;50.20;;;;;;4986085;28;20019;-61
2021/01/28 11:38:08;;;;;;;6.72;3.78;;;10.40;50.30;;;;;;4986080;28;20042;-61
2021/01/28 11:40:34;;;;;;;6.43;4.05;;;10.20;48.60;;;;;;4986093;28;20080;-62
2021/01/28 11:43:03;;;;;;;8.75;4.32;;;9.90;49.10;;;;;;4985891;28;20054;-61
2021/01/28 11:45:32;;;;;;;8.73;4.40;;;9.70;50.70;;;;;;4986010;28;20038;-61
2021/01/28 11:47:58;;;;;;;9.23;4.97;;;9.80;51.30;;;;;;4986165;28;20038;-67
2021/01/28 11:50:24;;;;;;;10.10;5.25;;;9.40;51.70;;;;;;4986148;28;20035;-61
2021/01/28 11:52:50;;;;;;;8.43;5.28;;;9.00;50.90;;;;;;4985837;28;20042;-60
2021/01/28 11:55:21;;;;;;;8.35;5.30;;;8.70;53.00;;;;;;4986374;28;20034;-60
2021/01/28 11:57:47;;;;;;;10.20;5.53;;;8.20;53.40;;;;;;4988274;28;20580;-60
2021/01/28 12:00:16;;;;;;;8.82;5.63;;;7.90;55.20;;;;;;5005085;28;20030;-60
2021/01/28 12:02:42;;;;;;;11.00;6.13;;;7.80;56.00;;;;;;5005128;28;20145;-60
2021/01/28 12:05:10;;;;;;;11.15;6.38;;;7.80;55.60;;;;;;5005239;28;20543;-61
2021/01/28 12:07:36;;;;;;;15.02;6.85;;;7.70;56.40;;;;;;5004895;28;20042;-61
2021/01/28 12:10:05;;;;;;;18.00;7.95;;;7.60;56.90;;;;;;5005245;28;20037;-61
2021/01/28 12:12:30;;;;;;;12.55;7.32;;;7.50;57.20;;;;;;5005214;28;20045;-58
2021/01/28 12:14:56;;;;;;;16.02;6.97;;;7.30;58.50;;;;;;5005180;28;20038;-60
2021/01/28 12:17:22;;;;;;;13.20;7.95;;;7.20;58.40;;;;;;5005151;28;20415;-62
2021/01/28 12:19:48;;;;;;;16.33;8.38;;;7.00;58.00;;;;;;5004939;28;20034;-61
2021/01/28 12:22:14;;;;;;;19.30;8.30;;;6.60;57.00;;;;;;5004910;28;20537;-60
2021/01/28 12:24:40;;;;;;;14.63;7.38;;;6.30;59.50;;;;;;5005020;28;20566;-60
2021/01/28 12:27:05;;;;;;;14.43;7.50;;;6.10;60.60;;;;;;5007044;28;20030;-60
2021/01/28 12:29:32;;;;;;;12.88;7.32;;;6.00;61.80;;;;;;5008817;28;20034;-59
2021/01/28 12:31:58;;;;;;;16.00;7.18;;;5.80;62.10;;;;;;5008388;28;20049;-58
2021/01/28 12:34:26;;;;;;;15.52;8.48;;;5.70;60.30;;;;;;5006528;28;20026;-58
2021/01/28 12:36:53;;;;;;;22.88;8.20;;;5.50;61.70;;;;;;4998631;28;20515;-58
2021/01/28 12:39:19;;;;;;;15.90;8.55;;;5.50;61.40;;;;;;5001198;28;20440;-61
2021/01/28 12:41:45;;;;;;;18.30;9.05;;;5.40;60.80;;;;;;5009715;28;20050;-61
2021/01/28 12:44:11;;;;;;;17.83;8.55;;;5.30;61.60;;;;;;4993719;28;20180;-61
2021/01/28 12:46:37;;;;;;;19.10;8.98;;;5.40;63.60;;;;;;4990054;28;20034;-62
2021/01/28 12:49:03;;;;;;;15.60;8.02;;;5.40;61.90;;;;;;4990282;28;20470;-61
2021/01/28 12:51:28;;;;;;;19.95;8.48;;;5.40;61.30;;;;;;4996145;28;20180;-61
2021/01/28 12:53:55;;;;;;;14.18;8.13;;;5.20;62.20;;;;;;5009329;28;20115;-61
2021/01/28 12:56:20;;;;;;;18.52;8.95;;;5.00;64.70;;;;;;5009827;28;20038;-61
2021/01/28 12:58:46;;;;;;;21.58;9.02;;;4.90;66.50;;;;;;5009744;28;20038;-62
2021/01/28 13:01:12;;;;;;;15.57;8.05;;;5.00;65.80;;;;;;5009558;28;20037;-61
2021/01/28 13:03:37;;;;;;;12.95;7.55;;;5.20;64.70;;;;;;5009680;28;20077;-61
2021/01/28 13:06:03;;;;;;;18.50;8.27;;;5.10;62.10;;;;;;5009588;28;20034;-61
2021/01/28 13:08:29;;;;;;;14.35;8.10;;;5.00;65.10;;;;;;5004137;28;20066;-60
2021/01/28 13:10:55;;;;;;;12.05;7.68;;;5.00;65.60;;;;;;4988609;28;20418;-60
2021/01/28 13:13:21;;;;;;;15.50;8.15;;;5.10;64.80;;;;;;4988663;28;20070;-63
2021/01/28 13:15:47;;;;;;;15.48;8.30;;;5.00;64.50;;;;;;4989642;28;20061;-63
2021/01/28 13:18:13;;;;;;;15.05;7.32;;;4.90;65.60;;;;;;4989714;28;20046;-63
2021/01/28 13:20:39;;;;;;;15.82;8.25;;;5.00;64.80;;;;;;4989807;28;20050;-60
2021/01/28 13:23:06;;;;;;;13.10;7.18;;;5.00;63.90;;;;;;4989623;28;20042;-60